createdAt,value
2022-09-15T01:23:05.803Z,11.50
2022-09-15T01:27:24.069Z,13.80
2022-09-15T01:30:57.364Z,12.50
2022-09-15T01:34:28.305Z,11.90
2022-09-15T01:38:02.371Z,11.10
2022-09-15T01:41:31.203Z,13.40
2022-09-15T01:45:02.366Z,12.10
2022-09-15T01:48:35.224Z,12.80
2022-09-15T01:52:08.385Z,12.00
2022-09-15T01:55:45.192Z,12.90
2022-09-15T01:59:14.417Z,13.80
2022-09-15T02:02:48.209Z,13.30
2022-09-15T02:06:25.431Z,11.40
2022-09-15T02:10:02.259Z,11.80
2022-09-15T02:13:44.344Z,13.10
2022-09-15T02:17:18.210Z,12.30
2022-09-15T02:20:52.378Z,11.80
2022-09-15T02:24:23.221Z,11.40
2022-09-15T02:27:53.104Z,10.70
2022-09-15T02:31:25.281Z,12.40
2022-09-15T02:34:56.366Z,12.80
2022-09-15T02:38:24.232Z,11.10
2022-09-15T02:41:56.399Z,10.10
2022-09-15T02:45:24.238Z,10.20
2022-09-15T02:48:55.436Z,11.80
2022-09-15T02:52:29.208Z,12.20
2022-09-15T02:56:05.413Z,11.10
2022-09-15T02:59:36.260Z,10.30
2022-09-15T03:03:07.415Z,11.70
2022-09-15T03:06:41.234Z,11.60
2022-09-15T03:10:12.414Z,12.70
2022-09-15T03:13:39.219Z,11.70
2022-09-15T03:17:10.342Z,11.90
2022-09-15T03:20:44.194Z,11.90
2022-09-15T03:24:14.408Z,11.70
2022-09-15T03:27:48.232Z,9.90
2022-09-15T03:31:19.491Z,11.50
2022-09-15T03:34:50.208Z,9.20
2022-09-15T03:38:21.362Z,10.20
2022-09-15T03:41:51.278Z,11.70
2022-09-15T03:45:21.236Z,11.40
2022-09-15T03:48:52.322Z,10.70
2022-09-15T03:52:08.218Z,12.00
2022-09-15T03:55:42.354Z,15.00
2022-09-15T03:59:11.295Z,15.70
2022-09-15T04:02:43.397Z,13.80
2022-09-15T04:06:01.650Z,16.20
2022-09-15T04:09:32.425Z,14.60
2022-09-15T04:13:03.204Z,10.80
2022-09-15T04:16:33.361Z,10.20
2022-09-15T04:20:02.275Z,13.80
2022-09-15T04:23:33.340Z,12.40
2022-09-15T04:26:49.245Z,12.60
2022-09-15T04:30:20.321Z,13.30
2022-09-15T04:33:53.238Z,14.10
2022-09-15T04:37:23.360Z,16.80
2022-09-15T04:40:57.330Z,18.60
2022-09-15T04:44:27.380Z,18.40
2022-09-15T04:48:00.199Z,18.40
2022-09-15T04:54:26.876Z,17.70
2022-09-15T04:58:03.296Z,16.30
2022-09-15T05:01:37.296Z,14.00
2022-09-15T05:05:09.290Z,14.40
2022-09-15T05:08:40.184Z,10.30
2022-09-15T05:12:11.325Z,10.10
2022-09-15T05:15:35.337Z,10.20
2022-09-15T05:19:16.350Z,9.40
2022-09-15T05:22:47.176Z,8.80
2022-09-15T05:25:54.531Z,6.00
2022-09-15T05:28:44.479Z,5.40
2022-09-15T05:31:39.112Z,4.80
2022-09-15T05:34:27.068Z,4.30
2022-09-15T05:37:14.327Z,4.00
2022-09-15T05:40:05.170Z,3.50
2022-09-15T05:43:15.583Z,3.00
2022-09-15T05:46:03.740Z,2.60
2022-09-15T05:48:51.526Z,1.90
2022-09-15T05:51:38.386Z,2.20
2022-09-15T05:54:33.945Z,1.80
2022-09-15T05:57:27.826Z,2.10
2022-09-15T06:00:16.583Z,1.90
2022-09-15T06:03:12.291Z,1.30
2022-09-15T06:06:02.090Z,1.90
2022-09-15T06:08:59.486Z,1.60
2022-09-15T06:11:47.295Z,1.60
2022-09-15T06:14:37.161Z,1.30
2022-09-15T06:17:44.396Z,1.60
2022-09-15T06:20:51.427Z,0.90
2022-09-15T06:23:48.592Z,1.10
2022-09-15T06:26:57.578Z,1.00
2022-09-15T06:30:17.506Z,1.50
2022-09-15T06:33:46.963Z,1.10
2022-09-15T06:36:50.331Z,0.90
2022-09-15T06:40:18.247Z,0.80
2022-09-15T06:43:10.960Z,0.60
2022-09-15T06:46:14.362Z,0.90
2022-09-15T06:49:11.833Z,1.40
2022-09-15T06:52:00.152Z,1.40
2022-09-15T06:54:50.562Z,1.40
2022-09-15T06:57:37.651Z,1.00
2022-09-15T07:00:33.158Z,1.10
2022-09-15T07:03:20.217Z,1.00
2022-09-15T07:06:07.871Z,1.20
2022-09-15T07:09:14.195Z,1.50
2022-09-15T07:12:03.857Z,1.10
2022-09-15T07:14:50.973Z,1.00
2022-09-15T07:17:37.978Z,0.80
2022-09-15T07:20:26.414Z,1.30
2022-09-15T07:23:43.544Z,1.20
2022-09-15T07:26:33.984Z,1.10
2022-09-15T07:29:23.810Z,1.00
2022-09-15T07:32:10.914Z,0.80
2022-09-15T07:34:59.870Z,1.00
2022-09-15T07:37:47.053Z,1.10
2022-09-15T07:40:48.022Z,1.10
2022-09-15T07:43:54.834Z,1.50
2022-09-15T07:46:49.683Z,2.10
2022-09-15T07:50:07.229Z,2.70
2022-09-15T07:53:14.045Z,4.20
2022-09-15T07:57:02.181Z,4.20
2022-09-15T08:00:20.244Z,4.20
2022-09-15T08:03:58.294Z,4.70
2022-09-15T08:07:25.230Z,3.80
2022-09-15T08:11:01.407Z,4.00
2022-09-15T08:14:17.391Z,3.90
2022-09-15T08:17:19.530Z,4.20
2022-09-15T08:20:56.263Z,5.00
2022-09-15T08:24:20.283Z,3.80
2022-09-15T08:27:43.294Z,2.90
2022-09-15T08:31:19.220Z,2.50
2022-09-15T08:34:50.277Z,2.80
2022-09-15T08:38:20.153Z,2.20
2022-09-15T08:42:06.272Z,2.10
2022-09-15T08:45:38.108Z,1.70
2022-09-15T08:49:08.290Z,1.80
2022-09-15T08:52:39.129Z,1.60
2022-09-15T08:56:20.345Z,2.20
2022-09-15T08:59:51.119Z,1.80
2022-09-15T09:03:25.332Z,1.60
2022-09-15T09:07:02.175Z,2.10
2022-09-15T09:10:33.245Z,1.40
2022-09-15T09:14:07.167Z,2.30
2022-09-15T09:17:59.344Z,1.90
2022-09-15T09:21:42.213Z,1.80
2022-09-15T09:25:21.125Z,2.10
2022-09-15T09:28:54.134Z,2.20
2022-09-15T09:32:22.290Z,2.60
2022-09-15T09:36:13.136Z,2.80
2022-09-15T09:39:45.395Z,1.90
2022-09-15T09:43:20.140Z,2.50
2022-09-15T09:46:50.325Z,2.30
2022-09-15T09:50:21.129Z,2.50
2022-09-15T09:54:01.273Z,2.20
2022-09-15T09:57:44.121Z,2.00
2022-09-15T10:01:17.483Z,1.90
2022-09-15T10:04:42.176Z,2.10
2022-09-15T10:08:18.317Z,2.00
2022-09-15T10:11:50.146Z,1.90
2022-09-15T10:15:04.500Z,1.70
2022-09-15T10:18:36.137Z,1.70
2022-09-15T10:22:08.342Z,1.60
2022-09-15T10:25:58.188Z,2.00
2022-09-15T10:29:52.233Z,2.50
2022-09-15T10:33:21.136Z,2.00
2022-09-15T10:37:01.349Z,2.40
2022-09-15T10:40:36.164Z,2.30
2022-09-15T10:44:11.241Z,2.60
2022-09-15T10:47:46.110Z,1.60
2022-09-15T10:51:16.361Z,2.00
2022-09-15T10:55:06.112Z,2.10
2022-09-15T10:58:36.565Z,2.00
2022-09-15T11:02:11.115Z,2.20
2022-09-15T11:05:24.143Z,2.40
2022-09-15T11:09:10.208Z,2.00
2022-09-15T11:12:04.210Z,2.70
2022-09-15T11:15:12.149Z,2.70
2022-09-15T11:18:46.265Z,2.80
2022-09-15T11:21:48.156Z,3.80
2022-09-15T11:25:01.363Z,3.30
2022-09-15T11:28:08.157Z,3.60
2022-09-15T11:31:23.314Z,4.20
2022-09-15T11:34:57.089Z,3.20
2022-09-15T11:38:35.285Z,4.20
2022-09-15T11:42:02.165Z,3.10
2022-09-15T11:44:52.726Z,3.50
2022-09-15T11:48:18.111Z,3.10
2022-09-15T11:51:55.455Z,3.00
2022-09-15T11:55:32.135Z,3.10
2022-09-15T11:58:46.220Z,2.90
2022-09-15T12:02:23.217Z,3.80
2022-09-15T12:05:28.417Z,3.30
2022-09-15T12:09:18.216Z,2.90
2022-09-15T12:12:54.348Z,4.20
2022-09-15T12:16:07.979Z,3.60
2022-09-15T12:19:13.984Z,3.50
2022-09-15T12:22:27.452Z,4.40
2022-09-15T12:25:37.714Z,3.90
2022-09-15T12:28:25.928Z,4.70
2022-09-15T12:31:50.372Z,4.30
2022-09-15T12:34:57.235Z,4.10
2022-09-15T12:37:54.269Z,5.00
2022-09-15T12:40:42.675Z,4.20
2022-09-15T12:43:32.748Z,5.00
2022-09-15T12:46:20.201Z,5.00
2022-09-15T12:49:16.963Z,5.60
2022-09-15T12:55:20.037Z,5.50
2022-09-15T12:58:08.332Z,6.10
2022-09-15T13:01:18.342Z,7.00
2022-09-15T13:04:05.373Z,5.70
2022-09-15T13:07:11.644Z,5.70
2022-09-15T13:10:14.051Z,6.00
2022-09-15T13:13:31.185Z,7.10
2022-09-15T13:16:33.554Z,7.30
2022-09-15T13:19:44.640Z,7.50
2022-09-15T13:22:34.256Z,6.90
2022-09-15T13:25:36.531Z,8.20
2022-09-15T13:28:44.022Z,7.90
2022-09-15T13:31:46.892Z,7.90
2022-09-15T13:35:05.253Z,8.10
2022-09-15T13:38:25.176Z,7.80
2022-09-15T13:41:34.306Z,8.60
2022-09-15T13:44:22.617Z,7.50
2022-09-15T13:47:29.068Z,7.40
2022-09-15T13:50:51.139Z,8.40
2022-09-15T13:53:49.170Z,8.70
2022-09-15T13:57:03.282Z,7.30
2022-09-15T13:59:52.843Z,7.80
2022-09-15T14:02:51.160Z,8.60
2022-09-15T14:05:57.737Z,7.90
2022-09-15T14:09:01.232Z,6.80
2022-09-15T14:12:28.963Z,6.70
2022-09-15T14:15:37.597Z,7.60
2022-09-15T14:18:55.118Z,6.20
2022-09-15T14:21:58.503Z,6.70
2022-09-15T14:24:46.265Z,6.30
2022-09-15T14:27:39.010Z,6.00
2022-09-15T14:30:30.215Z,6.30
2022-09-15T14:33:49.247Z,6.10
2022-09-15T14:37:05.057Z,5.60
2022-09-15T14:40:22.258Z,5.40
2022-09-15T14:43:42.131Z,4.40
2022-09-15T14:47:23.288Z,5.30
2022-09-15T14:50:44.041Z,5.60
2022-09-15T14:54:20.202Z,5.60
2022-09-15T14:57:38.221Z,5.00
2022-09-15T15:00:55.387Z,4.50
2022-09-15T15:04:01.191Z,5.00
2022-09-15T15:07:26.027Z,4.70
2022-09-15T15:10:16.820Z,4.60
2022-09-15T15:13:14.549Z,4.30
2022-09-15T15:16:01.810Z,5.10
2022-09-15T15:18:49.473Z,5.10
2022-09-15T15:21:41.310Z,5.50
2022-09-15T15:24:28.394Z,4.20
2022-09-15T15:27:34.463Z,4.60
2022-09-15T15:30:32.012Z,4.70
2022-09-15T15:33:21.343Z,5.10
2022-09-15T15:36:12.080Z,4.90
2022-09-15T15:39:00.458Z,4.90
2022-09-15T15:44:35.419Z,5.60
2022-09-15T15:47:22.528Z,5.70
2022-09-15T15:50:13.670Z,5.20
2022-09-15T15:53:01.111Z,7.20
2022-09-15T15:55:48.081Z,6.40
2022-09-15T15:58:35.041Z,6.20
2022-09-15T16:01:22.312Z,5.30
2022-09-15T16:04:09.165Z,5.90
2022-09-15T16:06:56.147Z,6.70
2022-09-15T16:09:43.379Z,6.70
2022-09-15T16:12:35.463Z,5.70
2022-09-15T16:15:24.575Z,17.60
2022-09-15T16:18:11.437Z,16.40
2022-09-15T16:20:59.197Z,7.30
2022-09-15T16:23:47.202Z,21.70
2022-09-15T16:26:35.867Z,22.20
2022-09-15T16:29:26.551Z,18.40
2022-09-15T16:32:18.119Z,10.20
2022-09-15T16:35:18.228Z,6.80
2022-09-15T16:38:05.286Z,6.20
2022-09-15T16:40:52.166Z,8.50
2022-09-15T16:43:39.108Z,6.00
2022-09-15T16:46:27.844Z,9.60
2022-09-15T16:49:15.083Z,7.80
2022-09-15T16:52:02.110Z,10.60
2022-09-15T16:54:49.265Z,11.40
2022-09-15T16:57:37.179Z,10.20
2022-09-15T17:00:44.095Z,8.30
2022-09-15T17:03:33.542Z,8.50
2022-09-15T17:06:24.115Z,6.90
2022-09-15T17:09:18.903Z,6.70
2022-09-15T17:12:48.270Z,7.90
2022-09-15T17:16:11.213Z,6.60
2022-09-15T17:19:43.217Z,7.90
2022-09-15T17:22:54.090Z,6.10
2022-09-15T17:26:24.004Z,4.70
2022-09-15T17:29:46.215Z,5.50
2022-09-15T17:33:16.027Z,4.90
2022-09-15T17:36:46.201Z,5.60
2022-09-15T17:40:17.056Z,5.70
2022-09-15T17:43:48.210Z,4.90
2022-09-15T17:47:19.084Z,5.90
2022-09-15T17:50:50.223Z,5.80
2022-09-15T17:54:24.069Z,5.40
2022-09-15T17:57:55.226Z,4.80
2022-09-15T18:01:26.214Z,5.80
2022-09-15T18:04:55.226Z,5.40
2022-09-15T18:08:23.128Z,4.60
2022-09-15T18:11:49.273Z,4.70
2022-09-15T18:15:20.129Z,5.60
2022-09-15T18:18:51.257Z,5.80
2022-09-15T18:22:24.088Z,5.90
2022-09-15T18:25:58.384Z,5.30
2022-09-15T18:29:29.075Z,6.30
2022-09-15T18:32:57.308Z,6.10
2022-09-15T18:36:28.099Z,5.60
2022-09-15T18:39:56.254Z,5.70
2022-09-15T18:43:26.042Z,6.30
2022-09-15T18:46:56.231Z,7.70
2022-09-15T18:50:28.053Z,7.20
2022-09-15T18:53:59.275Z,7.50
2022-09-15T18:57:29.127Z,7.60
2022-09-15T19:01:04.276Z,6.60
2022-09-15T19:04:38.490Z,7.60
2022-09-15T19:08:12.227Z,7.10
2022-09-15T19:11:43.012Z,7.20
2022-09-15T19:15:16.231Z,8.90
2022-09-15T19:18:49.131Z,10.20
2022-09-15T19:22:20.395Z,10.50
2022-09-15T19:25:54.104Z,12.50
2022-09-15T19:29:25.232Z,13.60
2022-09-15T19:32:41.062Z,12.90
2022-09-15T19:36:27.911Z,12.90
2022-09-15T19:40:00.220Z,15.70
2022-09-15T19:43:31.240Z,15.30
2022-09-15T19:47:02.086Z,16.20
2022-09-15T19:50:32.195Z,16.90
2022-09-15T19:54:03.398Z,15.90
2022-09-15T19:57:35.370Z,16.90
2022-09-15T20:01:08.086Z,17.00
2022-09-15T20:04:39.365Z,19.00
2022-09-15T20:07:58.788Z,17.10
2022-09-15T20:11:30.208Z,17.80
2022-09-15T20:15:01.050Z,18.70
2022-09-15T20:18:31.168Z,19.40
2022-09-15T20:22:02.181Z,18.80
2022-09-15T20:25:34.154Z,19.80
2022-09-15T20:29:06.207Z,21.20
2022-09-15T20:32:37.057Z,18.40
2022-09-15T20:36:05.232Z,18.40
2022-09-15T20:39:35.064Z,19.30
2022-09-15T20:43:13.251Z,17.30
2022-09-15T20:46:44.037Z,17.80
2022-09-15T20:50:14.220Z,21.10
2022-09-15T20:53:45.051Z,16.80
2022-09-15T20:57:15.162Z,18.80
2022-09-15T21:00:46.074Z,20.30
2022-09-15T21:04:17.158Z,18.50
2022-09-15T21:07:48.032Z,21.60
2022-09-15T21:11:18.117Z,20.40
2022-09-15T21:14:49.038Z,20.20
2022-09-15T21:18:15.249Z,18.80
2022-09-15T21:21:45.017Z,18.30
2022-09-15T21:25:05.192Z,18.00
2022-09-15T21:28:23.070Z,15.70
2022-09-15T21:31:54.166Z,18.00
2022-09-15T21:35:21.018Z,14.90
2022-09-15T21:38:58.275Z,16.00
2022-09-15T21:42:29.034Z,14.90
2022-09-15T21:46:05.249Z,14.30
2022-09-15T21:49:49.054Z,13.60
2022-09-15T21:56:41.051Z,14.60
2022-09-15T22:00:09.085Z,15.00
2022-09-15T22:03:29.030Z,13.70
2022-09-15T22:07:14.143Z,12.70
2022-09-15T22:10:43.992Z,12.00
2022-09-15T22:14:03.180Z,14.50
2022-09-15T22:17:20.225Z,13.20
2022-09-15T22:23:18.193Z,11.80
2022-09-15T22:26:07.178Z,12.00
2022-09-15T22:29:17.727Z,11.80
2022-09-15T22:32:23.073Z,12.50
2022-09-15T22:35:45.089Z,11.00
2022-09-15T22:39:07.091Z,11.40
2022-09-15T22:42:38.019Z,10.70
2022-09-15T22:46:04.111Z,10.70
2022-09-15T22:49:08.280Z,10.70
2022-09-15T22:52:40.158Z,9.80
2022-09-15T22:55:36.529Z,9.60
2022-09-15T22:59:11.997Z,9.30
2022-09-15T23:02:32.235Z,9.20
2022-09-15T23:05:39.572Z,9.70
2022-09-15T23:08:45.271Z,9.80
2022-09-15T23:11:49.822Z,9.30
2022-09-15T23:14:41.080Z,8.30
2022-09-15T23:17:30.545Z,8.30
2022-09-15T23:20:41.606Z,7.70
2022-09-15T23:23:29.740Z,8.00
2022-09-15T23:26:32.315Z,7.50
2022-09-15T23:29:51.115Z,8.60
2022-09-15T23:33:23.014Z,8.70
2022-09-15T23:36:30.418Z,7.70
2022-09-15T23:39:20.539Z,7.40
2022-09-15T23:42:31.002Z,9.50
2022-09-15T23:45:21.812Z,9.70
2022-09-15T23:48:24.200Z,9.80
2022-09-15T23:51:50.845Z,9.40
2022-09-15T23:54:45.472Z,9.50
2022-09-15T23:58:00.972Z,7.60
